createdAt,value
2017-11-27T00:01:17.239Z,100388.52
2017-11-27T00:03:43.623Z,100367.08
2017-11-27T00:06:09.948Z,100369.37
2017-11-27T00:08:36.246Z,100377.90
2017-11-27T00:11:02.570Z,100377.90
2017-11-27T00:13:28.967Z,100368.64
2017-11-27T00:15:56.015Z,100372.06
2017-11-27T00:18:23.086Z,100374.76
2017-11-27T00:20:49.494Z,100374.20
2017-11-27T00:23:15.785Z,100374.45
2017-11-27T00:25:42.122Z,100377.98
2017-11-27T00:28:08.448Z,100377.33
2017-11-27T00:30:34.810Z,100374.70
2017-11-27T00:33:01.138Z,100376.83
2017-11-27T00:35:27.541Z,100372.55
2017-11-27T00:37:53.840Z,100372.42
2017-11-27T00:40:20.155Z,100385.53
2017-11-27T00:42:46.447Z,100385.89
2017-11-27T00:45:12.765Z,100390.47
2017-11-27T00:47:39.064Z,100378.40
2017-11-27T00:50:05.420Z,100390.52
2017-11-27T00:52:31.690Z,100386.20
2017-11-27T00:54:58.041Z,100387.56
2017-11-27T00:57:25.107Z,100390.34
2017-11-27T00:59:51.454Z,100383.06
2017-11-27T01:02:17.897Z,100389.62
2017-11-27T01:04:44.327Z,100389.50
2017-11-27T01:07:10.636Z,100394.89
2017-11-27T01:09:36.909Z,100391.33
2017-11-27T01:12:03.216Z,100401.81
2017-11-27T01:14:29.485Z,100402.73
2017-11-27T01:16:55.824Z,100398.77
2017-11-27T01:19:22.136Z,100398.16
2017-11-27T01:21:48.479Z,100395.72
2017-11-27T01:24:14.822Z,100403.00
2017-11-27T01:26:41.131Z,100409.87
2017-11-27T01:29:07.463Z,100405.26
2017-11-27T01:31:33.759Z,100405.95
2017-11-27T01:34:00.075Z,100407.11
2017-11-27T01:36:26.373Z,100408.71
2017-11-27T01:38:52.742Z,100407.98
2017-11-27T01:41:19.067Z,100407.59
2017-11-27T01:43:45.350Z,100409.80
2017-11-27T01:46:11.676Z,100417.08
2017-11-27T01:48:38.091Z,100413.48
2017-11-27T01:51:04.392Z,100416.41
2017-11-27T01:53:30.807Z,100411.61
2017-11-27T01:55:57.900Z,100409.80
2017-11-27T01:58:24.202Z,100420.25
2017-11-27T02:00:50.562Z,100412.61
2017-11-27T02:03:16.922Z,100405.56
2017-11-27T02:05:43.258Z,100408.10
2017-11-27T02:08:10.375Z,100415.84
2017-11-27T02:10:36.739Z,100411.94
2017-11-27T02:13:03.032Z,100403.75
2017-11-27T02:15:29.327Z,100412.12
2017-11-27T02:17:56.397Z,100414.51
2017-11-27T02:20:22.752Z,100412.57
2017-11-27T02:22:49.111Z,100411.55
2017-11-27T02:25:15.473Z,100416.32
2017-11-27T02:27:42.541Z,100413.97
2017-11-27T02:30:08.963Z,100407.89
2017-11-27T02:32:35.283Z,100410.31
2017-11-27T02:35:03.325Z,100414.58
2017-11-27T02:37:29.702Z,100405.57
2017-11-27T02:39:56.010Z,100400.86
2017-11-27T02:42:22.312Z,100401.64
2017-11-27T02:44:48.611Z,100408.66
2017-11-27T02:47:14.902Z,100414.70
2017-11-27T02:49:41.959Z,100415.18
2017-11-27T02:52:09.103Z,100408.50
2017-11-27T02:54:36.189Z,100412.77
2017-11-27T02:57:02.515Z,100417.41
2017-11-27T02:59:28.846Z,100419.13
2017-11-27T03:01:55.161Z,100418.05
2017-11-27T03:04:21.474Z,100411.52
2017-11-27T03:06:48.523Z,100414.00
2017-11-27T03:09:15.606Z,100416.59
2017-11-27T03:11:42.916Z,100410.10
2017-11-27T03:14:09.189Z,100408.53
2017-11-27T03:16:35.490Z,100412.94
2017-11-27T03:19:02.638Z,100397.63
2017-11-27T03:21:29.802Z,100413.91
2017-11-27T03:23:56.886Z,100416.63
2017-11-27T03:26:23.245Z,100410.84
2017-11-27T03:28:49.540Z,100404.02
2017-11-27T03:31:15.888Z,100402.98
2017-11-27T03:33:42.216Z,100399.94
2017-11-27T03:36:08.538Z,100394.89
2017-11-27T03:38:34.919Z,100390.96
2017-11-27T03:41:01.216Z,100404.84
2017-11-27T03:43:27.547Z,100403.61
2017-11-27T03:45:53.917Z,100410.80
2017-11-27T03:48:20.974Z,100410.67
2017-11-27T03:50:48.058Z,100406.53
2017-11-27T03:53:14.447Z,100384.45
2017-11-27T03:55:41.489Z,100409.89
2017-11-27T03:58:07.818Z,100415.05
2017-11-27T04:00:34.160Z,100416.95
2017-11-27T04:03:01.241Z,100412.00
2017-11-27T04:05:27.538Z,100409.47
2017-11-27T04:07:54.619Z,100405.99
2017-11-27T04:10:21.000Z,100410.58
2017-11-27T04:12:47.285Z,100413.12
2017-11-27T04:15:13.670Z,100408.56
2017-11-27T04:17:40.718Z,100410.45
2017-11-27T04:20:07.098Z,100406.20
2017-11-27T04:22:33.431Z,100408.53
2017-11-27T04:24:59.784Z,100417.17
2017-11-27T04:27:26.114Z,100412.16
2017-11-27T04:29:52.438Z,100413.66
2017-11-27T04:32:18.869Z,100409.27
2017-11-27T04:34:45.158Z,100410.94
2017-11-27T04:37:11.468Z,100405.50
2017-11-27T04:39:37.851Z,100398.91
2017-11-27T04:42:04.230Z,100398.37
2017-11-27T04:44:30.657Z,100399.59
2017-11-27T04:46:56.997Z,100402.97
2017-11-27T04:49:24.178Z,100409.27
2017-11-27T04:51:50.535Z,100418.46
2017-11-27T04:54:16.911Z,100415.83
2017-11-27T04:56:43.984Z,100415.91
2017-11-27T04:59:10.288Z,100419.02
2017-11-27T05:01:36.619Z,100417.48
2017-11-27T05:04:02.979Z,100417.04
2017-11-27T05:06:29.301Z,100421.44
2017-11-27T05:08:56.354Z,100413.48
2017-11-27T05:11:23.414Z,100410.70
2017-11-27T05:13:54.701Z,100419.20
2017-11-27T05:16:21.003Z,100419.05
2017-11-27T05:18:47.319Z,100411.81
2017-11-27T05:21:13.743Z,100416.63
2017-11-27T05:23:40.759Z,100407.25
2017-11-27T05:26:07.096Z,100403.33
2017-11-27T05:28:33.443Z,100406.77
2017-11-27T05:30:59.764Z,100402.00
2017-11-27T05:33:26.804Z,100410.06
2017-11-27T05:35:53.117Z,100415.28
2017-11-27T05:38:19.384Z,100407.92
2017-11-27T05:40:45.669Z,100419.05
2017-11-27T05:43:11.997Z,100421.09
2017-11-27T05:45:38.346Z,100426.45
2017-11-27T05:48:04.659Z,100419.30
2017-11-27T05:50:30.996Z,100406.72
2017-11-27T05:52:57.253Z,100418.62
2017-11-27T05:55:23.650Z,100414.91
2017-11-27T05:57:49.897Z,100411.28
2017-11-27T06:00:16.230Z,100412.69
2017-11-27T06:02:42.544Z,100413.53
2017-11-27T06:05:08.840Z,100414.44
2017-11-27T06:07:35.178Z,100411.48
2017-11-27T06:10:01.528Z,100410.78
2017-11-27T06:12:27.833Z,100405.71
2017-11-27T06:14:54.867Z,100403.64
2017-11-27T06:17:21.240Z,100419.09
2017-11-27T06:19:47.532Z,100406.11
2017-11-27T06:22:14.587Z,100408.38
2017-11-27T06:24:40.883Z,100404.73
2017-11-27T06:27:07.202Z,100407.52
2017-11-27T06:29:33.580Z,100415.95
2017-11-27T06:32:00.617Z,100408.78
2017-11-27T06:34:27.749Z,100411.64
2017-11-27T06:36:54.087Z,100409.73
2017-11-27T06:39:20.426Z,100407.12
2017-11-27T06:41:47.824Z,100404.78
2017-11-27T06:44:14.093Z,100412.78
2017-11-27T06:46:48.450Z,100407.94
2017-11-27T06:49:14.783Z,100407.01
2017-11-27T06:51:41.799Z,100401.34
2017-11-27T06:54:08.153Z,100405.11
2017-11-27T06:56:35.187Z,100406.93
2017-11-27T06:59:01.536Z,100407.67
2017-11-27T07:01:27.843Z,100406.53
2017-11-27T07:03:54.283Z,100403.94
2017-11-27T07:06:21.409Z,100410.55
2017-11-27T07:08:47.859Z,100412.52
2017-11-27T07:11:14.188Z,100406.50
2017-11-27T07:13:40.501Z,100406.05
2017-11-27T07:16:06.825Z,100416.53
2017-11-27T07:18:33.162Z,100412.17
2017-11-27T07:20:59.438Z,100410.04
2017-11-27T07:23:27.754Z,100406.05
2017-11-27T07:25:54.080Z,100398.59
2017-11-27T07:28:20.383Z,100398.48
2017-11-27T07:30:46.764Z,100395.28
2017-11-27T07:33:13.099Z,100397.26
2017-11-27T07:35:39.417Z,100393.68
2017-11-27T07:41:15.037Z,100390.06
2017-11-27T07:43:42.142Z,100384.64
2017-11-27T07:46:08.494Z,100392.06
2017-11-27T07:48:35.010Z,100385.52
2017-11-27T07:51:01.494Z,100382.97
2017-11-27T07:53:27.916Z,100383.49
2017-11-27T07:55:54.249Z,100379.92
2017-11-27T07:58:21.351Z,100371.90
2017-11-27T08:00:47.746Z,100377.83
2017-11-27T08:03:14.909Z,100367.11
2017-11-27T08:05:41.181Z,100378.80
2017-11-27T08:08:07.501Z,100380.34
2017-11-27T08:10:33.832Z,100383.15
2017-11-27T08:13:00.092Z,100388.56
2017-11-27T08:15:26.420Z,100375.02
2017-11-27T08:17:52.725Z,100376.65
2017-11-27T08:20:19.050Z,100379.88
2017-11-27T08:22:46.061Z,100372.31
2017-11-27T08:25:13.233Z,100356.17
2017-11-27T08:27:39.516Z,100370.42
2017-11-27T08:30:06.592Z,100373.09
2017-11-27T08:32:32.883Z,100372.06
2017-11-27T08:34:59.271Z,100373.20
2017-11-27T08:37:25.584Z,100369.27
2017-11-27T08:39:52.662Z,100373.39
2017-11-27T08:42:18.911Z,100383.03
2017-11-27T08:44:45.231Z,100366.10
2017-11-27T08:47:11.527Z,100375.44
2017-11-27T08:49:37.806Z,100375.25
2017-11-27T08:52:04.146Z,100383.77
2017-11-27T08:54:31.190Z,100369.37
2017-11-27T08:56:57.804Z,100368.31
2017-11-27T08:59:24.095Z,100371.51
2017-11-27T09:01:51.190Z,100366.11
2017-11-27T09:04:18.290Z,100368.59
2017-11-27T09:06:45.362Z,100360.16
2017-11-27T09:09:11.645Z,100368.41
2017-11-27T09:11:37.962Z,100355.91
2017-11-27T09:14:04.290Z,100362.84
2017-11-27T09:16:30.686Z,100362.00
2017-11-27T09:18:57.048Z,100355.02
2017-11-27T09:21:23.666Z,100343.55
2017-11-27T09:23:49.963Z,100340.38
2017-11-27T09:26:16.308Z,100336.98
2017-11-27T09:28:42.581Z,100335.44
2017-11-27T09:31:08.849Z,100339.28
2017-11-27T09:33:35.945Z,100318.46
2017-11-27T09:36:02.332Z,100316.53
2017-11-27T09:38:29.369Z,100313.27
2017-11-27T09:40:55.697Z,100315.37
2017-11-27T09:43:22.723Z,100317.73
2017-11-27T09:45:49.017Z,100319.11
2017-11-27T09:48:15.357Z,100311.61
2017-11-27T09:50:41.642Z,100303.06
2017-11-27T09:53:08.728Z,100306.69
2017-11-27T09:55:35.085Z,100294.41
2017-11-27T09:58:01.374Z,100304.83
2017-11-27T10:00:27.710Z,100302.17
2017-11-27T10:02:54.049Z,100307.71
2017-11-27T10:05:20.379Z,100290.99
2017-11-27T10:07:46.678Z,100278.08
2017-11-27T10:10:13.700Z,100281.09
2017-11-27T10:12:40.080Z,100271.43
2017-11-27T10:15:06.423Z,100266.02
2017-11-27T10:17:32.821Z,100248.00
2017-11-27T10:19:59.170Z,100245.06
2017-11-27T10:22:26.305Z,100239.06
2017-11-27T10:24:52.631Z,100214.00
2017-11-27T10:27:18.892Z,100229.53
2017-11-27T10:29:45.267Z,100217.11
2017-11-27T10:32:11.588Z,100227.30
2017-11-27T10:34:37.895Z,100233.14
2017-11-27T10:37:04.198Z,100210.09
2017-11-27T10:39:31.236Z,100206.95
2017-11-27T10:41:58.273Z,100203.08
2017-11-27T10:44:24.610Z,100191.73
2017-11-27T10:46:50.944Z,100190.80
2017-11-27T10:49:17.346Z,100187.84
2017-11-27T10:51:43.698Z,100168.06
2017-11-27T10:54:10.042Z,100173.50
2017-11-27T10:56:36.453Z,100170.99
2017-11-27T10:59:03.581Z,100167.13
2017-11-27T11:01:29.919Z,100159.92
2017-11-27T11:03:56.250Z,100153.02
2017-11-27T11:06:22.569Z,100153.28
2017-11-27T11:08:48.886Z,100143.02
2017-11-27T11:11:15.254Z,100149.11
2017-11-27T11:13:41.572Z,100145.31
2017-11-27T11:16:07.910Z,100138.91
2017-11-27T11:18:34.255Z,100139.19
2017-11-27T11:21:00.738Z,100135.55
2017-11-27T11:23:27.058Z,100127.86
2017-11-27T11:25:53.407Z,100143.45
2017-11-27T11:28:19.744Z,100121.73
2017-11-27T11:30:46.133Z,100120.48
2017-11-27T11:33:12.479Z,100108.48
2017-11-27T11:35:39.672Z,100120.46
2017-11-27T11:38:06.076Z,100104.88
2017-11-27T11:40:32.547Z,100096.69
2017-11-27T11:42:58.943Z,100115.72
2017-11-27T11:45:25.269Z,100109.16
2017-11-27T11:47:51.662Z,100120.63
2017-11-27T11:50:18.764Z,100111.35
2017-11-27T11:52:45.117Z,100098.76
2017-11-27T11:55:11.402Z,100100.09
2017-11-27T11:57:38.408Z,100084.70
2017-11-27T12:00:04.705Z,100089.33
2017-11-27T12:02:31.030Z,100081.41
2017-11-27T12:04:57.349Z,100075.72
2017-11-27T12:07:23.694Z,100041.63
2017-11-27T12:09:50.020Z,100073.20
2017-11-27T12:12:17.124Z,100074.09
2017-11-27T12:14:44.164Z,100074.56
2017-11-27T12:17:10.492Z,100077.17
2017-11-27T12:19:36.879Z,100053.80
2017-11-27T12:22:03.919Z,100052.38
2017-11-27T12:24:31.133Z,100057.13
2017-11-27T12:26:57.454Z,100044.94
2017-11-27T12:29:23.785Z,100051.41
2017-11-27T12:31:50.121Z,100042.80
2017-11-27T12:34:17.197Z,100022.20
2017-11-27T12:36:43.571Z,100035.70
2017-11-27T12:39:09.946Z,100022.00
2017-11-27T12:41:36.253Z,100014.85
2017-11-27T12:44:02.522Z,100024.53
2017-11-27T12:46:29.676Z,100015.03
2017-11-27T12:48:56.119Z,100008.86
2017-11-27T12:51:23.172Z,100003.76
2017-11-27T12:53:50.245Z,100005.03
2017-11-27T12:56:16.541Z,99999.59
2017-11-27T12:58:43.590Z,99995.29
2017-11-27T13:01:10.761Z,99991.55
2017-11-27T13:03:37.027Z,99992.41
2017-11-27T13:06:03.407Z,99986.70
2017-11-27T13:08:30.454Z,99994.23
2017-11-27T13:10:57.489Z,99993.99
2017-11-27T13:13:23.787Z,99985.40
2017-11-27T13:15:50.083Z,99971.00
2017-11-27T13:18:16.385Z,99979.52
2017-11-27T13:20:42.737Z,99974.70
2017-11-27T13:23:09.117Z,99974.48
2017-11-27T13:25:35.442Z,99973.77
2017-11-27T13:28:01.754Z,99971.80
2017-11-27T13:30:28.048Z,99972.82
2017-11-27T13:32:54.369Z,99964.48
2017-11-27T13:35:20.690Z,99960.47
2017-11-27T13:37:46.958Z,99965.20
2017-11-27T13:40:14.017Z,99952.05
2017-11-27T13:42:40.322Z,99934.92
2017-11-27T13:45:07.421Z,99940.31
2017-11-27T13:47:33.686Z,99947.67
2017-11-27T13:49:59.990Z,99943.59
2017-11-27T13:52:26.346Z,99929.50
2017-11-27T13:54:52.635Z,99935.33
2017-11-27T13:57:19.004Z,99928.62
2017-11-27T13:59:45.255Z,99929.25
2017-11-27T14:02:12.316Z,99926.05
2017-11-27T14:04:38.635Z,99918.44
2017-11-27T14:07:05.685Z,99916.84
2017-11-27T14:09:32.719Z,99898.67
2017-11-27T14:11:59.091Z,99907.50
2017-11-27T14:14:25.409Z,99907.17
2017-11-27T14:16:51.723Z,99894.64
2017-11-27T14:19:18.765Z,99898.42
2017-11-27T14:21:45.809Z,99906.52
2017-11-27T14:24:12.066Z,99892.22
2017-11-27T14:26:38.371Z,99894.47
2017-11-27T14:29:04.661Z,99900.95
2017-11-27T14:31:31.009Z,99887.28
2017-11-27T14:33:57.278Z,99893.19
2017-11-27T14:36:24.308Z,99882.28
2017-11-27T14:38:50.599Z,99885.08
2017-11-27T14:41:16.888Z,99872.72
2017-11-27T14:43:43.217Z,99863.67
2017-11-27T14:46:10.246Z,99852.67
2017-11-27T14:48:36.589Z,99862.55
2017-11-27T14:51:03.622Z,99850.31
2017-11-27T14:53:29.979Z,99844.90
2017-11-27T14:55:57.042Z,99831.73
2017-11-27T14:58:23.371Z,99839.38
2017-11-27T15:00:49.772Z,99827.06
2017-11-27T15:03:16.913Z,99817.19
2017-11-27T15:05:43.270Z,99810.94
2017-11-27T15:08:10.355Z,99797.98
2017-11-27T15:10:36.718Z,99791.59
2017-11-27T15:13:03.063Z,99775.50
2017-11-27T15:15:29.373Z,99801.38
2017-11-27T15:17:55.839Z,99758.31
2017-11-27T15:20:22.280Z,99758.07
2017-11-27T15:22:49.435Z,99757.56
2017-11-27T15:25:16.499Z,99772.56
2017-11-27T15:27:42.817Z,99748.58
2017-11-27T15:30:09.949Z,99747.57
2017-11-27T15:32:36.358Z,99737.80
2017-11-27T15:35:16.888Z,99730.84
2017-11-27T15:37:43.252Z,99720.28
2017-11-27T15:40:09.610Z,99726.37
2017-11-27T15:42:36.079Z,99722.20
2017-11-27T15:45:02.485Z,99720.50
2017-11-27T15:47:28.835Z,99707.59
2017-11-27T15:49:55.247Z,99703.56
2017-11-27T15:52:22.414Z,99709.30
2017-11-27T15:54:48.761Z,99698.84
2017-11-27T15:57:15.098Z,99687.95
2017-11-27T15:59:41.459Z,99686.20
2017-11-27T16:02:07.783Z,99685.78
2017-11-27T16:04:34.187Z,99685.95
2017-11-27T16:07:00.658Z,99677.97
2017-11-27T16:09:26.992Z,99671.13
2017-11-27T16:11:53.385Z,99676.41
2017-11-27T16:14:19.783Z,99683.00
2017-11-27T16:16:46.179Z,99672.34
2017-11-27T16:19:12.470Z,99657.70
2017-11-27T16:21:38.752Z,99652.23
2017-11-27T16:24:05.554Z,99644.09
2017-11-27T16:26:31.909Z,99635.50
2017-11-27T16:28:58.284Z,99629.14
2017-11-27T16:31:24.752Z,99631.36
2017-11-27T16:33:51.084Z,99626.70
2017-11-27T16:36:17.395Z,99617.85
2017-11-27T16:38:44.447Z,99603.16
2017-11-27T16:41:10.754Z,99614.28
2017-11-27T16:43:37.071Z,99610.55
2017-11-27T16:46:03.372Z,99604.80
2017-11-27T16:48:29.819Z,99602.37
2017-11-27T16:51:18.300Z,99591.23
2017-11-27T16:53:44.702Z,99582.05
2017-11-27T16:56:11.068Z,99590.31
2017-11-27T16:58:37.450Z,99591.23
2017-11-27T17:01:03.812Z,99582.27
2017-11-27T17:03:30.120Z,99580.97
2017-11-27T17:05:56.516Z,99571.55
2017-11-27T17:08:23.933Z,99574.42
2017-11-27T17:10:50.403Z,99574.45
2017-11-27T17:13:16.975Z,99577.90
2017-11-27T17:15:43.477Z,99572.56
2017-11-27T17:18:10.147Z,99569.77
2017-11-27T17:20:37.001Z,99564.59
2017-11-27T17:23:03.353Z,99567.86
2017-11-27T17:25:29.809Z,99568.70
2017-11-27T17:27:56.963Z,99565.14
2017-11-27T17:30:24.515Z,99563.55
2017-11-27T17:32:50.990Z,99556.16
2017-11-27T17:35:17.564Z,99552.00
2017-11-27T17:37:44.251Z,99551.00
2017-11-27T17:40:10.666Z,99547.98
2017-11-27T17:42:38.258Z,99545.00
2017-11-27T17:45:04.716Z,99537.50
2017-11-27T17:47:31.212Z,99532.03
2017-11-27T17:49:58.367Z,99524.49
2017-11-27T17:52:25.442Z,99533.47
2017-11-27T17:54:51.765Z,99525.58
2017-11-27T17:57:18.048Z,99526.21
2017-11-27T17:59:44.499Z,99527.77
2017-11-27T18:02:11.583Z,99523.81
2017-11-27T18:04:37.912Z,99503.30
2017-11-27T18:07:04.546Z,99514.55
2017-11-27T18:09:30.911Z,99514.35
2017-11-27T18:11:57.422Z,99511.84
2017-11-27T18:14:23.809Z,99498.16
2017-11-27T18:16:52.191Z,99499.34
2017-11-27T18:19:20.418Z,99489.41
2017-11-27T18:21:47.279Z,99487.19
2017-11-27T18:24:13.732Z,99493.03
2017-11-27T18:26:40.872Z,99478.89
2017-11-27T18:29:07.356Z,99492.14
2017-11-27T18:31:33.768Z,99481.79
2017-11-27T18:34:00.898Z,99481.63
2017-11-27T18:36:27.276Z,99465.86
2017-11-27T18:38:53.625Z,99472.94
2017-11-27T18:41:19.942Z,99465.09
2017-11-27T18:43:46.311Z,99462.96
2017-11-27T18:46:12.697Z,99450.25
2017-11-27T18:48:39.131Z,99448.62
2017-11-27T18:51:05.501Z,99455.03
2017-11-27T18:53:31.843Z,99452.48
2017-11-27T18:55:58.261Z,99452.90
2017-11-27T18:58:24.587Z,99455.33
2017-11-27T19:00:50.958Z,99451.30
2017-11-27T19:03:17.282Z,99451.77
2017-11-27T19:05:43.629Z,99441.29
2017-11-27T19:08:10.121Z,99440.50
2017-11-27T19:10:36.576Z,99447.12
2017-11-27T19:13:02.978Z,99425.61
2017-11-27T19:15:36.884Z,99431.27
2017-11-27T19:18:03.616Z,99425.86
2017-11-27T19:20:31.597Z,99426.19
2017-11-27T19:23:00.460Z,99415.88
2017-11-27T19:25:27.822Z,99417.52
2017-11-27T19:27:54.750Z,99407.80
2017-11-27T19:30:22.370Z,99421.00
2017-11-27T19:32:51.826Z,99386.34
2017-11-27T19:35:18.232Z,99400.16
2017-11-27T19:37:45.346Z,99390.60
2017-11-27T19:40:11.923Z,99388.92
2017-11-27T19:42:39.070Z,99399.50
2017-11-27T19:45:06.651Z,99391.23
2017-11-27T19:47:33.367Z,99392.16
2017-11-27T19:50:01.170Z,99373.83
2017-11-27T19:52:28.635Z,99375.20
2017-11-27T19:54:55.331Z,99369.88
2017-11-27T19:57:21.997Z,99380.31
2017-11-27T19:59:48.716Z,99381.73
2017-11-27T20:02:15.213Z,99381.05
2017-11-27T20:04:41.808Z,99340.66
2017-11-27T20:07:09.245Z,99390.54
2017-11-27T20:09:39.089Z,99368.95
2017-11-27T20:12:05.614Z,99363.67
2017-11-27T20:14:32.103Z,99361.84
2017-11-27T20:16:59.080Z,99366.92
2017-11-27T20:19:26.470Z,99359.56
2017-11-27T20:21:56.487Z,99361.72
2017-11-27T20:24:23.302Z,99349.15
2017-11-27T20:26:49.967Z,99345.09
2017-11-27T20:29:16.563Z,99356.76
2017-11-27T20:31:43.355Z,99350.83
2017-11-27T20:34:10.006Z,99343.63
2017-11-27T20:36:37.711Z,99348.36
2017-11-27T20:39:04.271Z,99344.25
2017-11-27T20:41:32.116Z,99343.78
2017-11-27T20:43:59.271Z,99331.74
2017-11-27T20:46:26.766Z,99330.86
2017-11-27T20:48:53.281Z,99325.08
2017-11-27T20:51:20.729Z,99322.94
2017-11-27T20:53:48.049Z,99310.20
2017-11-27T20:56:14.969Z,99311.70
2017-11-27T20:58:44.020Z,99312.24
2017-11-27T21:01:11.198Z,99307.16
2017-11-27T21:03:37.919Z,99309.50
2017-11-27T21:06:05.168Z,99314.09
2017-11-27T21:08:32.417Z,99310.38
2017-11-27T21:11:00.797Z,99303.16
2017-11-27T21:13:29.868Z,99317.88
2017-11-27T21:16:12.845Z,99300.52
2017-11-27T21:42:54.101Z,99256.00
2017-11-27T21:45:23.523Z,99269.25
2017-11-27T21:47:55.432Z,99267.02
2017-11-27T21:50:22.626Z,99269.41
2017-11-27T21:52:50.478Z,99261.39
2017-11-27T21:55:18.153Z,99254.25
2017-11-27T22:04:14.980Z,99260.30
2017-11-27T22:06:41.639Z,99254.61
2017-11-27T22:09:08.499Z,99250.50
2017-11-27T22:11:35.500Z,99246.33
2017-11-27T22:14:02.724Z,99242.33
2017-11-27T22:16:30.577Z,99242.71
2017-11-27T22:18:57.705Z,99237.57
2017-11-27T22:21:45.467Z,99236.31
2017-11-27T22:24:12.129Z,99234.55
2017-11-27T22:26:38.814Z,99223.58
2017-11-27T22:29:05.545Z,99225.91
2017-11-27T22:31:32.340Z,99232.27
2017-11-27T22:33:59.121Z,99219.68
2017-11-27T22:36:26.484Z,99217.32
2017-11-27T22:38:53.189Z,99206.25
2017-11-27T22:41:20.182Z,99207.55
2017-11-27T22:43:46.924Z,99205.00
2017-11-27T22:46:13.759Z,99198.95
2017-11-27T22:48:40.495Z,99208.26
2017-11-27T22:51:07.255Z,99209.55
2017-11-27T22:53:34.167Z,99206.47
2017-11-27T22:56:01.677Z,99219.33
2017-11-27T23:01:29.581Z,99193.10
2017-11-27T23:03:56.257Z,99201.34
2017-11-27T23:06:23.334Z,99187.81
2017-11-27T23:08:51.075Z,99131.90
2017-11-27T23:11:18.858Z,99180.59
2017-11-27T23:13:47.064Z,99169.46
2017-11-27T23:16:15.807Z,99171.55
2017-11-27T23:18:44.854Z,99175.91
2017-11-27T23:21:16.384Z,99165.84
2017-11-27T23:23:45.992Z,99158.47
2017-11-27T23:26:16.641Z,99158.83
2017-11-27T23:44:03.329Z,99134.86
2017-11-27T23:46:30.622Z,99144.80
2017-11-27T23:48:57.127Z,99131.73
2017-11-27T23:51:23.547Z,99143.28
2017-11-27T23:53:50.731Z,99121.56
2017-11-27T23:56:17.113Z,99144.05
2017-11-27T23:58:43.644Z,99137.67
